Time;durP1;ratioP1;P1;durP2;ratioP2;P2;SDS_P1;SDS_P2;PMS_P1;PMS_P2;Temp;Humidity;BMP_temperature;BMP_pressure;BME280_temperature;BME280_humidity;BME280_pressure;Samples;Min_cycle;Max_cycle;Signal;HPM_P1;HPM_P2
2022/08/26 00:01:41;;;;;;;5.93;5.53;;;19.90;99.90;;;;;;5085377;28;20628;-79
2022/08/26 00:04:08;;;;;;;6.20;5.70;;;19.80;99.90;;;;;;5087127;28;20716;-80
2022/08/26 00:06:35;;;;;;;7.00;6.50;;;19.80;99.90;;;;;;5083503;28;20751;-80
2022/08/26 00:09:04;;;;;;;7.63;6.30;;;19.80;99.90;;;;;;5086100;28;20629;-79
2022/08/26 00:11:31;;;;;;;6.57;5.90;;;19.80;99.90;;;;;;5083547;28;20669;-79
2022/08/26 00:13:58;;;;;;;5.70;5.20;;;19.80;99.90;;;;;;5084033;28;20922;-79
2022/08/26 00:16:25;;;;;;;6.70;6.13;;;19.80;99.90;;;;;;5087351;28;20985;-81
2022/08/26 00:18:53;;;;;;;6.33;5.83;;;19.80;99.90;;;;;;5083763;28;20635;-80
2022/08/26 00:21:20;;;;;;;6.03;5.60;;;19.80;99.90;;;;;;5084811;28;20638;-79
2022/08/26 00:23:47;;;;;;;6.27;5.70;;;19.80;99.90;;;;;;5085726;28;20655;-79
2022/08/26 00:26:15;;;;;;;7.17;5.93;;;19.80;99.90;;;;;;5084573;28;20623;-79
2022/08/26 00:28:44;;;;;;;5.97;5.57;;;19.70;99.90;;;;;;5081852;28;20986;-79
2022/08/26 00:31:11;;;;;;;7.17;6.47;;;19.70;99.90;;;;;;5086997;28;20626;-79
2022/08/26 00:33:38;;;;;;;6.30;5.83;;;19.70;99.90;;;;;;5083820;28;20652;-80
2022/08/26 00:36:05;;;;;;;6.93;6.43;;;19.60;99.90;;;;;;5087523;28;21185;-80
2022/08/26 00:38:32;;;;;;;8.20;7.00;;;19.60;99.90;;;;;;5085540;28;20631;-79
2022/08/26 00:40:59;;;;;;;7.10;6.40;;;19.60;99.90;;;;;;5085113;28;21221;-80
2022/08/26 00:43:29;;;;;;;7.10;6.60;;;19.60;99.90;;;;;;5086002;28;20652;-80
2022/08/26 00:46:02;;;;;;;7.03;6.40;;;19.60;99.90;;;;;;5087111;28;20624;-79
2022/08/26 00:48:31;;;;;;;7.23;6.53;;;19.60;99.90;;;;;;5085237;28;21209;-80
2022/08/26 00:51:02;;;;;;;7.20;6.70;;;19.60;99.90;;;;;;5085958;28;20631;-80
2022/08/26 00:53:33;;;;;;;6.47;5.87;;;19.50;99.90;;;;;;5080234;28;20718;-80
2022/08/26 00:56:04;;;;;;;7.37;6.80;;;19.50;99.90;;;;;;5083820;28;20621;-80
2022/08/26 00:58:33;;;;;;;8.17;7.03;;;19.50;99.90;;;;;;5085054;28;20627;-80
2022/08/26 01:01:01;;;;;;;7.47;6.77;;;19.50;99.90;;;;;;5083860;28;20640;-80
2022/08/26 01:03:31;;;;;;;7.60;7.07;;;19.40;99.90;;;;;;5085094;28;20654;-80
2022/08/26 01:06:01;;;;;;;7.57;7.03;;;19.40;99.90;;;;;;5083405;28;20620;-80
2022/08/26 01:08:28;;;;;;;6.30;5.90;;;19.40;99.90;;;;;;5084250;28;20646;-80
2022/08/26 01:10:56;;;;;;;7.50;6.93;;;19.40;99.90;;;;;;5083626;28;20639;-79
2022/08/26 01:13:24;;;;;;;7.77;7.07;;;19.30;99.90;;;;;;5082142;28;20675;-80
2022/08/26 01:15:56;;;;;;;6.70;6.20;;;19.20;99.90;;;;;;5084187;28;20639;-80
2022/08/26 01:18:24;;;;;;;6.80;6.20;;;19.20;99.90;;;;;;5082745;28;20994;-80
2022/08/26 01:21:00;;;;;;;7.50;6.90;;;19.10;99.90;;;;;;5080176;28;20662;-80
2022/08/26 01:23:32;;;;;;;7.23;6.73;;;19.10;99.90;;;;;;5084773;28;20640;-79
2022/08/26 01:26:04;;;;;;;7.43;6.87;;;19.10;99.90;;;;;;5082147;28;20639;-80
2022/08/26 01:28:34;;;;;;;7.70;7.00;;;19.10;99.90;;;;;;5084775;28;20631;-80
2022/08/26 01:31:03;;;;;;;7.23;6.60;;;19.10;99.90;;;;;;5082474;28;20633;-79
2022/08/26 01:33:35;;;;;;;8.20;7.10;;;19.10;99.90;;;;;;5081649;28;21249;-80
2022/08/26 01:36:04;;;;;;;7.87;6.63;;;19.10;99.90;;;;;;5086053;28;21006;-80
2022/08/26 01:38:33;;;;;;;7.87;7.37;;;19.10;99.90;;;;;;5081007;28;20629;-80
2022/08/26 01:41:01;;;;;;;8.00;7.10;;;19.00;99.90;;;;;;5083207;28;21134;-79
2022/08/26 01:43:31;;;;;;;8.57;7.10;;;19.00;99.90;;;;;;5085313;28;20651;-79
2022/08/26 01:45:58;;;;;;;9.10;7.93;;;19.00;99.90;;;;;;5080826;28;20628;-80
2022/08/26 01:48:28;;;;;;;8.33;7.60;;;18.90;99.90;;;;;;5083963;28;20984;-80
2022/08/26 01:50:56;;;;;;;8.30;7.60;;;18.90;99.90;;;;;;5081646;28;20624;-80
2022/08/26 01:53:27;;;;;;;8.10;7.30;;;18.80;99.90;;;;;;5082919;28;20768;-79
2022/08/26 01:55:58;;;;;;;8.70;8.00;;;18.80;99.90;;;;;;5083800;28;20723;-80
2022/08/26 01:58:32;;;;;;;8.90;8.10;;;18.80;99.90;;;;;;5078276;28;20652;-80
2022/08/26 02:00:59;;;;;;;8.70;7.90;;;18.80;99.90;;;;;;5083525;28;21275;-80
2022/08/26 02:03:27;;;;;;;7.83;7.27;;;18.80;99.90;;;;;;5082929;28;21017;-79
2022/08/26 02:05:57;;;;;;;9.03;8.30;;;18.80;99.90;;;;;;5081676;28;20624;-79
2022/08/26 02:08:28;;;;;;;8.13;7.63;;;18.80;99.90;;;;;;5084164;28;20616;-81
2022/08/26 02:10:57;;;;;;;8.30;7.70;;;18.80;99.90;;;;;;5083092;28;20634;-79
2022/08/26 02:13:26;;;;;;;9.13;8.20;;;18.80;99.90;;;;;;5080315;28;20683;-79
2022/08/26 02:15:53;;;;;;;8.17;7.50;;;18.80;99.90;;;;;;5083981;28;20632;-79
2022/08/26 02:18:21;;;;;;;8.77;7.93;;;18.80;99.90;;;;;;5081870;28;20624;-79
2022/08/26 02:20:48;;;;;;;9.17;8.47;;;18.80;99.90;;;;;;5079332;28;20619;-79
2022/08/26 02:23:15;;;;;;;8.07;7.47;;;18.80;99.90;;;;;;5080598;28;20647;-79
2022/08/26 02:25:47;;;;;;;8.40;7.63;;;18.70;99.90;;;;;;5079208;28;20632;-79
2022/08/26 02:28:16;;;;;;;10.27;7.47;;;18.70;99.90;;;;;;5077942;28;20612;-79
2022/08/26 02:30:44;;;;;;;9.40;8.40;;;18.70;99.90;;;;;;5081731;28;20642;-80
2022/08/26 02:33:11;;;;;;;9.07;8.10;;;18.70;99.90;;;;;;5080651;28;20682;-80
2022/08/26 02:35:38;;;;;;;8.50;7.87;;;18.70;99.90;;;;;;5083992;28;20666;-79
2022/08/26 02:38:07;;;;;;;8.50;7.90;;;18.60;99.90;;;;;;5082546;28;20632;-80
2022/08/26 02:40:36;;;;;;;9.00;8.20;;;18.70;99.90;;;;;;5082726;28;21244;-80
2022/08/26 02:43:04;;;;;;;8.07;7.30;;;18.60;99.90;;;;;;5080638;28;20695;-80
2022/08/26 02:45:32;;;;;;;7.67;6.97;;;18.60;99.90;;;;;;5083689;28;21363;-80
2022/08/26 02:47:59;;;;;;;7.97;7.30;;;18.50;99.90;;;;;;5080218;28;20637;-80
2022/08/26 02:50:27;;;;;;;8.97;8.20;;;18.50;99.90;;;;;;5083983;28;20674;-80
2022/08/26 02:52:54;;;;;;;8.77;8.07;;;18.50;99.90;;;;;;5081842;28;20997;-79
2022/08/26 02:55:21;;;;;;;8.27;7.57;;;18.50;99.90;;;;;;5084118;28;20636;-80
2022/08/26 02:57:48;;;;;;;9.80;8.80;;;18.50;99.90;;;;;;5080626;28;20631;-80
2022/08/26 03:00:16;;;;;;;9.40;8.60;;;18.50;99.90;;;;;;5083624;28;20636;-79
2022/08/26 03:02:44;;;;;;;9.37;8.57;;;18.50;99.90;;;;;;5079141;28;21237;-79
2022/08/26 03:05:11;;;;;;;8.60;8.00;;;18.40;99.90;;;;;;5080736;28;20624;-80
2022/08/26 03:07:39;;;;;;;8.80;8.10;;;18.40;99.90;;;;;;5080267;28;21179;-79
2022/08/26 03:10:06;;;;;;;10.23;8.93;;;18.40;99.90;;;;;;5082526;28;21023;-80
2022/08/26 03:12:34;;;;;;;7.63;7.03;;;18.30;99.90;;;;;;5085206;28;20673;-80
2022/08/26 03:15:00;;;;;;;8.90;8.30;;;18.30;99.90;;;;;;5083033;28;20637;-80
2022/08/26 03:17:27;;;;;;;8.40;7.70;;;18.20;99.90;;;;;;5086227;28;20619;-79
2022/08/26 03:19:55;;;;;;;8.80;8.20;;;18.20;99.90;;;;;;5081478;28;20718;-79
2022/08/26 03:22:22;;;;;;;8.00;7.27;;;18.20;99.90;;;;;;5086816;28;21043;-79
2022/08/26 03:24:50;;;;;;;11.63;8.97;;;18.10;99.90;;;;;;5085159;28;20648;-79
2022/08/26 03:27:17;;;;;;;8.70;7.93;;;18.10;99.90;;;;;;5081797;28;20776;-80
2022/08/26 03:32:28;;;;;;;8.70;7.93;;;18.10;99.90;;;;;;5087743;28;20677;-80
2022/08/26 03:34:57;;;;;;;8.97;8.00;;;18.00;99.90;;;;;;5087934;28;20628;-80
2022/08/26 03:37:24;;;;;;;9.50;8.73;;;18.00;99.90;;;;;;5087178;28;20647;-79
2022/08/26 03:39:50;;;;;;;8.57;7.77;;;18.00;99.90;;;;;;5085291;28;20624;-80
2022/08/26 03:42:17;;;;;;;9.20;8.50;;;18.00;99.90;;;;;;5085850;28;20631;-80
2022/08/26 03:44:44;;;;;;;9.20;8.40;;;17.90;99.90;;;;;;5088387;28;20655;-79
2022/08/26 03:47:11;;;;;;;7.80;7.20;;;17.90;99.90;;;;;;5086948;28;21050;-80
2022/08/26 03:49:38;;;;;;;10.27;8.07;;;17.90;99.90;;;;;;5087120;28;20646;-81
2022/08/26 03:52:06;;;;;;;8.73;8.03;;;17.90;99.90;;;;;;5086218;28;20633;-79
2022/08/26 03:54:33;;;;;;;8.73;7.97;;;17.80;99.90;;;;;;5085553;28;20672;-82
2022/08/26 03:57:00;;;;;;;9.80;8.80;;;17.80;99.90;;;;;;5085063;28;20668;-80
2022/08/26 03:59:27;;;;;;;8.07;7.43;;;17.80;99.90;;;;;;5085951;28;20623;-80
2022/08/26 04:01:54;;;;;;;8.63;7.40;;;17.70;99.90;;;;;;5085482;28;20680;-80
2022/08/26 04:04:21;;;;;;;9.77;8.53;;;17.70;99.90;;;;;;5087444;28;20652;-79
2022/08/26 04:06:48;;;;;;;8.97;8.37;;;17.70;99.90;;;;;;5083524;28;20634;-80
2022/08/26 04:09:20;;;;;;;9.80;8.87;;;17.70;99.90;;;;;;5084316;28;20644;-79
2022/08/26 04:11:48;;;;;;;8.80;8.10;;;17.60;99.90;;;;;;5083418;28;20990;-79
2022/08/26 04:14:18;;;;;;;10.47;9.27;;;17.60;99.90;;;;;;5085120;28;21048;-80
2022/08/26 04:16:45;;;;;;;8.70;8.00;;;17.60;99.90;;;;;;5087418;28;20632;-81
2022/08/26 04:19:14;;;;;;;8.80;8.07;;;17.60;99.90;;;;;;5080980;28;20635;-80
2022/08/26 04:21:41;;;;;;;10.17;9.17;;;17.60;99.90;;;;;;5085020;28;20624;-80
2022/08/26 04:24:11;;;;;;;8.83;8.10;;;17.50;99.90;;;;;;5083246;28;20659;-80
2022/08/26 04:26:39;;;;;;;9.37;8.60;;;17.50;99.90;;;;;;5084734;28;20632;-80
2022/08/26 04:29:08;;;;;;;9.00;8.30;;;17.50;99.90;;;;;;5085077;28;20633;-80
2022/08/26 04:31:37;;;;;;;9.47;8.57;;;17.40;99.90;;;;;;5084621;28;20627;-80
2022/08/26 04:34:05;;;;;;;10.03;9.10;;;17.50;99.90;;;;;;5083238;28;20683;-80
2022/08/26 04:36:32;;;;;;;9.53;8.83;;;17.40;99.90;;;;;;5082933;28;20631;-80
2022/08/26 04:39:01;;;;;;;8.90;8.30;;;17.40;99.90;;;;;;5085612;28;20649;-80
2022/08/26 04:41:28;;;;;;;9.70;8.90;;;17.40;99.90;;;;;;5084931;28;20741;-81
2022/08/26 04:43:56;;;;;;;9.00;8.27;;;17.40;99.90;;;;;;5082591;28;20697;-80
2022/08/26 04:46:24;;;;;;;8.83;8.03;;;17.40;99.90;;;;;;5082252;28;20624;-80
2022/08/26 04:48:52;;;;;;;9.40;8.60;;;17.40;99.90;;;;;;5087694;28;20807;-80
2022/08/26 04:51:26;;;;;;;10.17;9.20;;;17.50;99.90;;;;;;5083532;28;20620;-80
2022/08/26 04:53:55;;;;;;;10.43;9.63;;;17.50;99.90;;;;;;5082912;28;20683;-79
2022/08/26 04:56:24;;;;;;;9.70;8.30;;;17.50;99.90;;;;;;5082050;28;21254;-80
2022/08/26 04:58:51;;;;;;;9.87;8.87;;;17.50;99.90;;;;;;5080547;28;20745;-79
2022/08/26 05:01:19;;;;;;;8.80;8.00;;;17.50;99.90;;;;;;5084369;28;21242;-80
2022/08/26 05:03:46;;;;;;;9.13;8.07;;;17.50;99.90;;;;;;5084084;28;20628;-80
2022/08/26 05:06:13;;;;;;;10.30;9.47;;;17.50;99.90;;;;;;5083856;28;20994;-80
2022/08/26 05:08:40;;;;;;;9.80;9.00;;;17.50;99.90;;;;;;5082349;28;20644;-80
2022/08/26 05:11:07;;;;;;;9.07;8.27;;;17.60;99.90;;;;;;5085047;28;20629;-80
2022/08/26 05:13:37;;;;;;;10.70;9.90;;;17.60;99.90;;;;;;5082640;28;20660;-80
2022/08/26 05:16:06;;;;;;;9.80;9.07;;;17.60;99.90;;;;;;5081829;28;20663;-80
2022/08/26 05:18:34;;;;;;;10.57;9.57;;;17.70;99.90;;;;;;5081795;28;20654;-79
2022/08/26 05:21:02;;;;;;;10.67;9.57;;;17.70;99.90;;;;;;5078863;28;20696;-79
2022/08/26 05:23:30;;;;;;;9.63;8.93;;;17.70;99.90;;;;;;5084344;28;20632;-79
2022/08/26 05:25:59;;;;;;;9.70;9.00;;;17.70;99.90;;;;;;5081558;28;20677;-80
2022/08/26 05:28:27;;;;;;;10.80;10.00;;;17.80;99.90;;;;;;5082437;28;20644;-80
2022/08/26 05:30:54;;;;;;;10.37;9.43;;;17.90;99.90;;;;;;5081057;28;20624;-80
2022/08/26 05:33:22;;;;;;;11.53;10.30;;;17.90;99.90;;;;;;5084736;28;20698;-80
2022/08/26 05:35:50;;;;;;;11.67;10.67;;;17.90;99.90;;;;;;5082537;28;20628;-80
2022/08/26 05:38:19;;;;;;;10.63;9.70;;;17.90;99.90;;;;;;5084584;28;21210;-79
2022/08/26 05:40:48;;;;;;;11.67;10.77;;;18.00;99.90;;;;;;5081999;28;20635;-80
2022/08/26 05:43:16;;;;;;;10.30;9.53;;;18.00;99.90;;;;;;5084632;28;21134;-80
2022/08/26 05:45:46;;;;;;;11.37;10.37;;;18.10;99.90;;;;;;5083042;28;20632;-80
2022/08/26 05:48:13;;;;;;;10.03;9.23;;;18.00;99.90;;;;;;5084095;28;20750;-80
2022/08/26 05:50:43;;;;;;;10.43;9.60;;;18.10;99.90;;;;;;5082721;28;20633;-80
2022/08/26 05:53:12;;;;;;;10.47;9.67;;;18.20;99.90;;;;;;5082620;28;20623;-80
2022/08/26 05:55:43;;;;;;;10.83;9.70;;;18.30;99.90;;;;;;5084622;28;20628;-80
2022/08/26 05:58:10;;;;;;;10.60;9.60;;;18.30;99.90;;;;;;5082136;28;20645;-80
2022/08/26 06:00:37;;;;;;;11.20;9.50;;;18.30;99.90;;;;;;5084334;28;20647;-80
2022/08/26 06:03:03;;;;;;;9.87;9.07;;;18.30;99.90;;;;;;5082581;28;21038;-80
2022/08/26 06:05:30;;;;;;;8.80;8.00;;;18.40;99.90;;;;;;5082139;28;20616;-80
2022/08/26 06:08:13;;;;;;;9.57;8.77;;;18.40;99.90;;;;;;5083186;28;20659;-80
2022/08/26 06:10:46;;;;;;;9.80;8.90;;;18.50;99.90;;;;;;5081139;28;20685;-80
2022/08/26 06:13:14;;;;;;;9.87;8.87;;;18.40;99.90;;;;;;5082660;28;20846;-79
2022/08/26 06:15:42;;;;;;;9.17;8.47;;;18.50;99.90;;;;;;5082398;28;20675;-79
2022/08/26 06:18:09;;;;;;;9.10;8.27;;;18.60;99.90;;;;;;5080908;28;20669;-79
2022/08/26 06:20:36;;;;;;;9.37;8.50;;;18.70;99.90;;;;;;5073984;28;20626;-79
2022/08/26 06:25:49;;;;;;;8.90;8.00;;;18.80;99.90;;;;;;5078074;28;21572;-79
2022/08/26 06:28:16;;;;;;;9.60;8.90;;;18.90;99.90;;;;;;5081193;28;20624;-79
2022/08/26 06:30:43;;;;;;;8.60;7.80;;;19.00;99.90;;;;;;5081348;28;20639;-79
2022/08/26 06:33:10;;;;;;;7.40;6.90;;;19.10;99.90;;;;;;5077127;28;20635;-79
2022/08/26 06:35:38;;;;;;;7.83;7.10;;;19.20;99.90;;;;;;5077969;28;20652;-80
2022/08/26 06:38:05;;;;;;;7.70;7.10;;;19.30;99.90;;;;;;5078614;28;20653;-79
2022/08/26 06:40:32;;;;;;;7.67;7.00;;;19.40;99.90;;;;;;5083009;28;20639;-79
2022/08/26 06:43:00;;;;;;;8.70;8.00;;;19.50;99.90;;;;;;5081694;28;20643;-79
2022/08/26 06:45:27;;;;;;;8.90;7.30;;;19.60;99.90;;;;;;5082224;28;20978;-79
2022/08/26 06:47:54;;;;;;;7.83;7.07;;;19.60;99.90;;;;;;5082415;28;20624;-79
2022/08/26 06:50:21;;;;;;;7.93;7.07;;;19.70;99.90;;;;;;5081304;28;20637;-79
2022/08/26 06:52:48;;;;;;;7.47;6.77;;;19.80;99.90;;;;;;5085585;28;20728;-79
2022/08/26 06:55:14;;;;;;;7.70;6.93;;;19.90;99.90;;;;;;5086745;28;20682;-79
2022/08/26 06:57:41;;;;;;;8.07;7.20;;;19.90;99.90;;;;;;5082358;28;20627;-79
2022/08/26 07:00:11;;;;;;;7.50;6.73;;;20.10;99.90;;;;;;5088178;28;20643;-79
2022/08/26 07:02:38;;;;;;;9.00;7.77;;;20.20;99.90;;;;;;5084596;28;20627;-78
2022/08/26 07:05:06;;;;;;;7.97;7.17;;;20.20;99.90;;;;;;5082519;28;20672;-79
2022/08/26 07:07:33;;;;;;;8.23;7.43;;;20.20;99.90;;;;;;5084193;28;20631;-79
2022/08/26 07:10:00;;;;;;;8.80;6.93;;;20.20;99.90;;;;;;5083169;28;20633;-79
2022/08/26 07:12:30;;;;;;;7.47;6.40;;;20.30;99.90;;;;;;5082755;28;20654;-79
2022/08/26 07:14:57;;;;;;;7.30;6.70;;;20.40;99.90;;;;;;5083772;28;20700;-81
2022/08/26 07:17:26;;;;;;;7.00;5.77;;;20.30;99.90;;;;;;5084779;28;21000;-79
2022/08/26 07:19:52;;;;;;;6.77;6.17;;;20.40;99.90;;;;;;5078756;28;20632;-82
2022/08/26 07:22:19;;;;;;;12.17;7.07;;;20.50;99.90;;;;;;5087316;28;20665;-80
2022/08/26 07:24:46;;;;;;;7.37;6.63;;;20.60;99.90;;;;;;5081551;28;20650;-80
2022/08/26 07:27:16;;;;;;;7.63;7.03;;;20.60;99.90;;;;;;5085060;28;21383;-81
2022/08/26 07:29:43;;;;;;;7.10;6.47;;;20.80;99.90;;;;;;5085381;28;20620;-80
2022/08/26 07:32:12;;;;;;;6.63;6.00;;;20.90;99.90;;;;;;5082895;28;21045;-80
2022/08/26 07:34:41;;;;;;;12.03;6.63;;;21.10;99.90;;;;;;5083184;28;20683;-81
2022/08/26 07:37:09;;;;;;;6.40;5.80;;;21.30;99.90;;;;;;5082557;28;20626;-80
2022/08/26 07:39:36;;;;;;;7.23;6.63;;;21.30;99.90;;;;;;5081401;28;20743;-80
2022/08/26 07:42:05;;;;;;;6.90;6.30;;;21.40;99.90;;;;;;5084542;28;20740;-80
2022/08/26 07:44:32;;;;;;;7.40;6.80;;;21.60;99.90;;;;;;5080943;28;20726;-80
2022/08/26 07:46:59;;;;;;;6.90;6.30;;;21.70;99.90;;;;;;5085105;28;21136;-80
2022/08/26 07:49:26;;;;;;;7.03;6.17;;;21.80;99.90;;;;;;5086160;28;20990;-80
2022/08/26 07:51:55;;;;;;;6.23;5.27;;;22.00;99.90;;;;;;5084508;28;20999;-80
2022/08/26 07:54:22;;;;;;;7.47;6.90;;;22.10;99.90;;;;;;5085267;28;20686;-81
2022/08/26 07:56:49;;;;;;;6.17;5.77;;;22.20;99.90;;;;;;5084040;28;20727;-80
2022/08/26 07:59:17;;;;;;;9.70;6.50;;;22.40;99.90;;;;;;5080220;28;20635;-80
2022/08/26 08:01:45;;;;;;;8.50;6.87;;;22.60;99.90;;;;;;5081173;28;21202;-80
2022/08/26 08:04:13;;;;;;;6.30;5.80;;;22.80;99.90;;;;;;5084643;28;20651;-81
2022/08/26 08:06:43;;;;;;;6.50;6.00;;;22.90;99.90;;;;;;5081087;28;20630;-81
2022/08/26 08:09:12;;;;;;;7.97;7.17;;;23.00;99.90;;;;;;5084319;28;20683;-80
2022/08/26 08:11:39;;;;;;;11.10;6.30;;;23.20;99.90;;;;;;5081250;28;20639;-80
2022/08/26 08:14:07;;;;;;;7.27;6.40;;;23.40;99.90;;;;;;5081469;28;20722;-81
2022/08/26 08:16:33;;;;;;;7.50;6.77;;;23.60;99.90;;;;;;5084338;28;21237;-80
2022/08/26 08:19:00;;;;;;;6.77;6.17;;;23.70;99.90;;;;;;5080948;28;20639;-80
2022/08/26 08:21:28;;;;;;;6.43;5.50;;;23.90;99.90;;;;;;5086488;28;20628;-80
2022/08/26 08:23:56;;;;;;;6.53;5.60;;;24.00;99.90;;;;;;5083019;28;20709;-80
2022/08/26 08:26:26;;;;;;;6.30;5.70;;;24.20;99.90;;;;;;5081797;28;21228;-80
2022/08/26 08:28:55;;;;;;;6.30;5.23;;;24.30;99.90;;;;;;5085427;28;20627;-81
2022/08/26 08:31:24;;;;;;;7.23;6.20;;;24.50;99.90;;;;;;5084360;28;20638;-80
2022/08/26 08:33:51;;;;;;;6.10;5.70;;;24.70;99.90;;;;;;5079151;28;20656;-80
2022/08/26 08:36:18;;;;;;;7.80;4.97;;;24.80;99.90;;;;;;5077667;28;20660;-80
2022/08/26 08:38:46;;;;;;;5.17;4.67;;;25.00;99.90;;;;;;5077258;28;20648;-81
2022/08/26 08:41:31;;;;;;;6.67;5.23;;;25.10;99.90;;;;;;5082476;28;21194;-80
2022/08/26 08:44:00;;;;;;;5.40;4.97;;;25.30;99.90;;;;;;5081797;28;20702;-80
2022/08/26 08:46:28;;;;;;;7.80;4.93;;;25.40;99.90;;;;;;5081708;28;20631;-81
2022/08/26 08:48:58;;;;;;;6.73;5.00;;;25.70;99.90;;;;;;5081859;28;20621;-81
2022/08/26 08:51:34;;;;;;;5.40;5.00;;;25.80;99.90;;;;;;5080662;28;20615;-80
2022/08/26 08:54:03;;;;;;;5.37;4.67;;;25.90;99.90;;;;;;5082095;28;20660;-80
2022/08/26 08:56:36;;;;;;;5.20;4.80;;;26.10;99.90;;;;;;5082833;28;20639;-80
2022/08/26 08:59:13;;;;;;;5.57;5.17;;;26.30;99.90;;;;;;5081691;28;20625;-81
2022/08/26 09:01:53;;;;;;;4.40;4.07;;;26.60;99.90;;;;;;5082327;28;20681;-80
2022/08/26 09:04:37;;;;;;;7.00;5.73;;;26.70;99.90;;;;;;5079620;28;21230;-80
2022/08/26 09:07:08;;;;;;;6.73;4.80;;;26.90;99.90;;;;;;5082974;28;20633;-81
2022/08/26 09:09:39;;;;;;;5.13;4.70;;;27.00;99.90;;;;;;5083872;28;20628;-80
2022/08/26 09:12:12;;;;;;;4.93;4.53;;;27.20;99.90;;;;;;5079412;28;20716;-81
2022/08/26 09:14:39;;;;;;;6.47;4.93;;;27.30;99.00;;;;;;5083037;28;20691;-81
2022/08/26 09:17:15;;;;;;;6.40;4.83;;;27.40;98.30;;;;;;5083544;28;20986;-81
2022/08/26 09:19:49;;;;;;;7.40;5.07;;;27.50;98.30;;;;;;5077206;28;20695;-81
2022/08/26 09:22:29;;;;;;;5.87;5.37;;;27.60;98.80;;;;;;5084221;28;20632;-81
2022/08/26 09:24:56;;;;;;;4.90;4.43;;;27.70;97.40;;;;;;5080745;28;20703;-81
2022/08/26 09:27:39;;;;;;;4.73;4.33;;;27.80;97.20;;;;;;5079115;28;20628;-80
2022/08/26 09:30:08;;;;;;;4.77;4.43;;;28.10;96.10;;;;;;5082750;28;20621;-80
2022/08/26 09:32:35;;;;;;;6.87;5.07;;;28.30;94.80;;;;;;5078525;28;20631;-80
2022/08/26 09:35:04;;;;;;;8.17;5.20;;;28.40;94.30;;;;;;5080203;28;20687;-81
2022/08/26 09:37:38;;;;;;;5.70;5.30;;;28.50;93.50;;;;;;5081688;28;20638;-80
2022/08/26 09:40:23;;;;;;;6.03;5.40;;;28.50;93.60;;;;;;5080637;28;20953;-80
2022/08/26 09:43:07;;;;;;;5.60;5.10;;;28.40;92.30;;;;;;5081951;28;20971;-80
2022/08/26 09:45:36;;;;;;;5.37;4.87;;;28.50;92.30;;;;;;5076290;28;20687;-80
2022/08/26 09:48:03;;;;;;;6.43;5.83;;;28.50;91.90;;;;;;5082188;28;20629;-80
2022/08/26 09:50:33;;;;;;;7.80;5.67;;;28.70;91.10;;;;;;5080022;28;20667;-81
2022/08/26 09:53:13;;;;;;;10.67;5.50;;;28.70;91.20;;;;;;5076210;28;20633;-81
2022/08/26 09:55:42;;;;;;;8.50;6.00;;;28.60;90.40;;;;;;5080268;28;21025;-80
2022/08/26 09:58:13;;;;;;;9.50;5.50;;;28.60;91.70;;;;;;5074559;28;20723;-80
2022/08/26 10:00:42;;;;;;;7.17;6.03;;;28.60;91.40;;;;;;5078766;28;20720;-80
2022/08/26 10:03:12;;;;;;;11.77;6.37;;;28.70;91.30;;;;;;5079678;28;20643;-80
2022/08/26 10:05:44;;;;;;;8.00;5.93;;;28.90;90.70;;;;;;5080604;28;21217;-80
2022/08/26 10:08:24;;;;;;;8.90;5.93;;;29.00;90.30;;;;;;5078655;28;21011;-80
2022/08/26 10:10:52;;;;;;;6.53;5.70;;;29.10;89.60;;;;;;5075662;28;20627;-80
2022/08/26 10:13:25;;;;;;;6.40;5.80;;;29.10;90.00;;;;;;5081735;28;20666;-80
2022/08/26 10:15:59;;;;;;;13.07;5.63;;;29.20;88.70;;;;;;5082588;28;20710;-80
2022/08/26 10:18:30;;;;;;;9.73;6.03;;;29.50;89.40;;;;;;5079664;28;21224;-80
2022/08/26 10:21:02;;;;;;;10.67;6.50;;;29.80;88.70;;;;;;5079828;28;20617;-80
2022/08/26 10:23:34;;;;;;;10.97;7.20;;;29.90;84.60;;;;;;5082254;28;20624;-80
2022/08/26 10:26:08;;;;;;;8.60;7.00;;;30.10;83.20;;;;;;5081889;28;21010;-81
2022/08/26 10:28:41;;;;;;;7.13;6.40;;;30.10;82.10;;;;;;5084362;28;20636;-81
2022/08/26 10:31:20;;;;;;;7.17;6.50;;;30.20;81.60;;;;;;5078572;28;20648;-81
2022/08/26 10:33:46;;;;;;;7.60;6.40;;;30.20;80.30;;;;;;5083757;28;20615;-81
2022/08/26 10:39:01;;;;;;;9.10;6.60;;;30.50;78.70;;;;;;5085447;28;20653;-81
2022/08/26 10:41:33;;;;;;;8.60;5.90;;;30.60;77.30;;;;;;5082132;28;20612;-81
2022/08/26 10:44:05;;;;;;;9.90;6.17;;;31.00;75.60;;;;;;5085136;28;20690;-81
2022/08/26 10:46:40;;;;;;;7.23;6.60;;;31.20;74.20;;;;;;5082816;28;20634;-81
2022/08/26 10:49:11;;;;;;;7.70;6.90;;;31.40;72.20;;;;;;5084373;28;20640;-81
2022/08/26 10:51:46;;;;;;;8.30;7.40;;;31.50;69.40;;;;;;5085532;28;20623;-81
2022/08/26 10:54:20;;;;;;;5.93;5.43;;;31.70;67.50;;;;;;5087200;28;20679;-81
2022/08/26 10:56:53;;;;;;;6.60;5.93;;;32.00;66.30;;;;;;5085305;28;20667;-81
2022/08/26 10:59:35;;;;;;;7.00;6.23;;;32.30;63.50;;;;;;5083604;28;20634;-81
2022/08/26 11:02:11;;;;;;;8.07;5.77;;;32.50;59.90;;;;;;5084704;28;20979;-81
2022/08/26 11:04:46;;;;;;;7.03;5.33;;;32.80;60.80;;;;;;5086808;28;20659;-81
2022/08/26 11:07:36;;;;;;;6.90;6.20;;;32.70;60.00;;;;;;5082893;28;21012;-81
2022/08/26 11:10:07;;;;;;;11.90;5.90;;;32.80;60.30;;;;;;5084009;28;20624;-81
2022/08/26 11:12:56;;;;;;;7.03;5.23;;;33.10;59.30;;;;;;5085456;28;20619;-81
2022/08/26 11:16:01;;;;;;;7.27;6.17;;;33.30;59.00;;;;;;5083450;28;21043;-80
2022/08/26 11:18:45;;;;;;;10.87;6.83;;;33.80;60.50;;;;;;5065788;28;20643;-80
2022/08/26 11:21:50;;;;;;;8.10;7.30;;;33.80;60.00;;;;;;5084080;28;20619;-80
2022/08/26 11:25:00;;;;;;;10.33;9.37;;;33.80;59.80;;;;;;5084149;28;20754;-80
2022/08/26 11:27:56;;;;;;;8.87;7.57;;;33.70;59.40;;;;;;5078051;28;20620;-80
2022/08/26 11:30:44;;;;;;;9.80;8.80;;;33.50;59.70;;;;;;5083603;28;21054;-80
2022/08/26 11:33:31;;;;;;;10.80;9.83;;;33.60;59.80;;;;;;5082199;28;20631;-80
2022/08/26 11:35:59;;;;;;;11.53;10.53;;;33.70;59.60;;;;;;5082145;28;21259;-80
2022/08/26 11:38:29;;;;;;;10.27;9.17;;;34.00;60.10;;;;;;5085381;28;20710;-80
2022/08/26 11:41:05;;;;;;;9.10;8.40;;;34.40;58.80;;;;;;5081300;28;20624;-82
2022/08/26 11:43:32;;;;;;;7.50;6.83;;;34.50;59.00;;;;;;5083754;28;20675;-82
2022/08/26 11:46:03;;;;;;;6.80;6.10;;;34.80;58.60;;;;;;5082131;28;20633;-80
2022/08/26 11:48:32;;;;;;;8.70;8.00;;;35.20;58.20;;;;;;5086665;28;20623;-80
2022/08/26 11:51:05;;;;;;;12.20;6.60;;;35.70;56.90;;;;;;5083244;28;21046;-80
2022/08/26 11:53:34;;;;;;;8.13;6.40;;;36.10;56.90;;;;;;5079863;28;20616;-80
2022/08/26 11:56:05;;;;;;;7.70;6.27;;;36.50;55.60;;;;;;5082735;28;20636;-80
2022/08/26 11:58:32;;;;;;;10.60;7.23;;;36.90;53.90;;;;;;5084498;28;20210;-80
2022/08/26 12:01:01;;;;;;;9.67;5.90;;;37.20;53.90;;;;;;5082069;28;20216;-79
2022/08/26 12:03:37;;;;;;;7.33;6.00;;;37.40;52.90;;;;;;5086088;28;20635;-80
2022/08/26 12:06:12;;;;;;;11.05;6.63;;;37.80;51.50;;;;;;5081094;28;20225;-80
2022/08/26 12:08:42;;;;;;;7.50;6.68;;;38.00;50.90;;;;;;5084098;28;20291;-79
2022/08/26 12:11:13;;;;;;;7.72;6.28;;;38.20;50.00;;;;;;5082818;28;20289;-80
2022/08/26 12:13:41;;;;;;;6.65;6.00;;;38.50;49.90;;;;;;5083943;28;20198;-80
2022/08/26 12:16:09;;;;;;;7.43;6.40;;;38.70;48.20;;;;;;5084165;28;20315;-80
2022/08/26 12:18:39;;;;;;;8.45;6.40;;;39.00;47.70;;;;;;5079499;28;20206;-80
2022/08/26 12:21:20;;;;;;;13.13;6.95;;;39.20;47.90;;;;;;5082441;28;20628;-80
2022/08/26 12:23:49;;;;;;;6.82;6.22;;;39.50;47.80;;;;;;5083184;28;20197;-80
2022/08/26 12:26:23;;;;;;;7.78;6.85;;;39.90;46.60;;;;;;5082250;28;20606;-80
2022/08/26 12:28:54;;;;;;;12.27;6.75;;;40.10;44.80;;;;;;5080663;28;20221;-80
2022/08/26 12:31:31;;;;;;;7.25;5.55;;;40.40;44.50;;;;;;5084969;28;20194;-80
2022/08/26 12:33:59;;;;;;;11.50;6.53;;;40.40;43.70;;;;;;5078939;28;20232;-80
2022/08/26 12:36:30;;;;;;;7.80;6.57;;;40.10;43.50;;;;;;5083416;28;20206;-80
2022/08/26 12:39:06;;;;;;;9.48;6.15;;;39.80;43.80;;;;;;5083927;28;20666;-80
2022/08/26 12:41:43;;;;;;;9.32;6.07;;;39.30;44.30;;;;;;5074987;28;20198;-79
2022/08/26 12:44:32;;;;;;;8.68;6.68;;;38.80;44.60;;;;;;5076616;28;20224;-80
2022/08/26 12:47:03;;;;;;;9.93;6.30;;;38.40;44.80;;;;;;5082077;28;20210;-80
2022/08/26 12:49:29;;;;;;;11.77;6.68;;;37.60;45.60;;;;;;5082935;28;20669;-79
2022/08/26 12:51:58;;;;;;;8.50;6.13;;;37.10;45.80;;;;;;5081192;28;20229;-79
2022/08/26 12:54:57;;;;;;;8.95;6.57;;;36.60;46.80;;;;;;5083617;28;20222;-80
2022/08/26 12:57:13;;;;;;;10.98;6.60;;;36.70;47.00;;;;;;5082092;28;20712;-80
2022/08/26 12:59:40;;;;;;;12.27;6.07;;;37.00;45.90;;;;;;5083898;28;20205;-80
2022/08/26 13:02:08;;;;;;;9.50;6.30;;;37.30;46.50;;;;;;5080739;28;20308;-79
2022/08/26 13:04:38;;;;;;;6.30;5.70;;;37.80;45.30;;;;;;5084065;28;20684;-79
2022/08/26 13:07:24;;;;;;;8.85;5.53;;;38.10;43.80;;;;;;5080227;28;20214;-79
2022/08/26 13:09:53;;;;;;;7.10;5.50;;;38.60;44.00;;;;;;5080224;28;20658;-79